Flight Track Log - Related Links

Times and Time Zones

All times are in EDT time to prevent confusion due to time zone crossing. See the CTL78 flight status page for this flight to view local times or setup timezone preferences in your user account.

Time Position Orientation Groundspeed Altitude Reporting Facility
EDT Latitude Longitude Course Direction KTS MPH feet Rate Location/Type
Fri 10:49:45 PM 41.5461 -81.6956 326° Northwest 142 163 1,900  Level Cleveland Center
Fri 10:50:39 PM 41.5581 -81.7431 289° West 160 184 2,700 730 Climbing Cleveland Center
Fri 10:51:40 PM 41.5742 -81.7989 291° West 169 194 3,300 545 Climbing Cleveland Center
Fri 10:52:40 PM 41.5944 -81.8575 295° West 168 193 3,800 545 Climbing Cleveland Center
Fri 10:53:41 PM 41.6144 -81.9136 296° West 166 191 4,400 541 Climbing Cleveland Center
Fri 10:54:42 PM 41.6325 -81.9694 293° West 168 193 4,900 472 Climbing Cleveland Center
Fri 10:55:48 PM 41.6569 -82.0339 297° West 164 189 5,400 520 Climbing Cleveland Center
Fri 10:56:49 PM 41.6769 -82.0900 296° West 166 191 6,000 347 Climbing Cleveland Center
Fri 10:57:49 PM 41.6908 -82.1458 288° West 165 190 6,100  Climbing Cleveland Center
Fri 10:58:56 PM 41.7086 -82.2158 289° West 174 200 6,000  Descending Cleveland Center
Fri 11:00:03 PM 41.7283 -82.2831 291° West 176 203 6,100  Climbing Cleveland Center
Fri 11:00:48 PM 41.7444 -82.3253 297° West 178 205 6,000 -74 Descending Cleveland Center
Fri 11:01:24 PM 41.7586 -82.3647 296° West 179 206 6,000 62 Level Cleveland Center
Fri 11:02:25 PM 41.7764 -82.4208 293° West 177 204 6,100 52 Climbing Cleveland Center
Fri 11:03:19 PM 41.7964 -82.4772 295° West 177 204 6,100  Level Cleveland Center
Fri 11:04:14 PM 41.8161 -82.5333 295° West 176 203 6,100  Level Cleveland Center
Fri 11:05:20 PM 41.8358 -82.6036 291° West 177 204 6,100 -47 Level Cleveland Center
Fri 11:06:21 PM 41.8642 -82.6547 307° West 183 211 6,000  Descending Cleveland Center
Fri 11:07:22 PM 41.9094 -82.6869 332° Northwest 181 208 6,100 50 Climbing Cleveland Center
Fri 11:08:22 PM 41.9503 -82.7275 324° Northwest 180 207 6,100  Level Cleveland Center
Fri 11:09:17 PM 41.9850 -82.7647 321° Northwest 178 205 6,100 -52 Level Cleveland Center
Fri 11:10:18 PM 42.0281 -82.8056 325° Northwest 181 208 6,000 -47 Descending Cleveland Center
Fri 11:11:24 PM 42.0711 -82.8489 323° Northwest 179 206 6,000  Level Cleveland Center
Fri 11:12:31 PM 42.1158 -82.8953 322° Northwest 180 207 6,000  Level Cleveland Center
Fri 11:13:32 PM 42.1547 -82.9358 322° Northwest 178 205 6,000 47 Level Cleveland Center
Fri 11:14:38 PM 42.1997 -82.9797 324° Northwest 179 206 6,100  Climbing Cleveland Center
Fri 11:15:45 PM 42.2447 -83.0206 326° Northwest 180 207 6,000 -94 Descending Cleveland Center
Fri 11:16:46 PM 42.2856 -83.0614 324° Northwest 178 205 5,900 -365 Descending Cleveland Center
Fri 11:17:40 PM 42.3242 -83.1022 322° Northwest 198 228 5,300 -730 Descending Cleveland Center
Fri 11:18:41 PM 42.3689 -83.1519 321° Northwest 200 230 4,500 -656 Descending Cleveland Center
Fri 11:19:48 PM 42.4181 -83.1989 325° Northwest 194 223 3,900 -361 Descending Cleveland Center
Fri 11:20:54 PM 42.4628 -83.2486 321° Northwest 180 207 3,700 -298 Descending Cleveland Center
Fri 11:21:49 PM 42.4992 -83.2867 322° Northwest 184 212 3,300 -365 Descending Cleveland Center
Fri 11:22:49 PM 42.5378 -83.3308 320° Northwest 188 216 3,000 -520 Descending Cleveland Center
Fri 11:23:56 PM 42.5825 -83.3833 319° Northwest 191 220 2,200 -469 Descending Cleveland Center
Fri 11:24:57 PM 42.6231 -83.4275 321° Northwest 170 196 2,000 -298 Descending Cleveland Center
Fri 11:25:57 PM 42.6536 -83.4600 322° Northwest 117 135 1,600 -400 Descending Cleveland Center
Fri 11:27:00 PM 42.6656 -83.4205 67° East  Level Estimated
Fri 11:34:00 PM 42.6656 -83.4205 140° Southeast  Level Estimated
Fri 11:35:00 PM 42.6656 -83.4205 140° Southeast  Level Estimated

Login

Don't have an account? Register now (free) for customized features, flight alerts, and more!